sensor_id;sensor_type;location;lat;lon;timestamp;P1;durP1;ratioP1;P2;durP2;ratioP2
70715;SDS011;59053;50.832;12.882;2022-11-14T00:01:31;30.88;;;12.10;;
70715;SDS011;59053;50.832;12.882;2022-11-14T00:04:15;27.42;;;11.48;;
70715;SDS011;59053;50.832;12.882;2022-11-14T00:07:01;29.37;;;11.70;;
70715;SDS011;59053;50.832;12.882;2022-11-14T00:09:45;28.35;;;11.35;;
70715;SDS011;59053;50.832;12.882;2022-11-14T00:12:29;28.13;;;11.98;;
70715;SDS011;59053;50.832;12.882;2022-11-14T00:15:13;29.35;;;12.13;;
70715;SDS011;59053;50.832;12.882;2022-11-14T00:17:57;28.45;;;11.82;;
70715;SDS011;59053;50.832;12.882;2022-11-14T00:20:40;29.40;;;11.43;;
70715;SDS011;59053;50.832;12.882;2022-11-14T00:23:24;30.30;;;12.02;;
70715;SDS011;59053;50.832;12.882;2022-11-14T00:26:08;28.77;;;11.30;;
70715;SDS011;59053;50.832;12.882;2022-11-14T00:28:53;29.45;;;12.00;;
70715;SDS011;59053;50.832;12.882;2022-11-14T00:31:36;27.75;;;12.05;;
70715;SDS011;59053;50.832;12.882;2022-11-14T00:34:20;28.87;;;11.13;;
70715;SDS011;59053;50.832;12.882;2022-11-14T00:37:04;28.00;;;11.85;;
70715;SDS011;59053;50.832;12.882;2022-11-14T00:39:48;28.42;;;11.40;;
70715;SDS011;59053;50.832;12.882;2022-11-14T00:45:57;29.30;;;11.85;;
70715;SDS011;59053;50.832;12.882;2022-11-14T00:48:41;25.97;;;11.10;;
70715;SDS011;59053;50.832;12.882;2022-11-14T00:51:26;27.90;;;11.18;;
70715;SDS011;59053;50.832;12.882;2022-11-14T00:54:10;28.27;;;11.02;;
70715;SDS011;59053;50.832;12.882;2022-11-14T00:56:54;26.15;;;11.10;;
70715;SDS011;59053;50.832;12.882;2022-11-14T00:59:37;30.85;;;11.68;;
70715;SDS011;59053;50.832;12.882;2022-11-14T01:02:22;29.70;;;12.23;;
70715;SDS011;59053;50.832;12.882;2022-11-14T01:05:08;26.88;;;11.48;;
70715;SDS011;59053;50.832;12.882;2022-11-14T01:07:52;26.52;;;11.40;;
70715;SDS011;59053;50.832;12.882;2022-11-14T01:10:40;26.58;;;11.65;;
70715;SDS011;59053;50.832;12.882;2022-11-14T01:13:24;28.35;;;11.52;;
70715;SDS011;59053;50.832;12.882;2022-11-14T01:16:08;29.50;;;11.90;;
70715;SDS011;59053;50.832;12.882;2022-11-14T01:18:52;27.27;;;10.85;;
70715;SDS011;59053;50.832;12.882;2022-11-14T01:21:36;28.77;;;10.60;;
70715;SDS011;59053;50.832;12.882;2022-11-14T01:24:20;28.40;;;11.25;;
70715;SDS011;59053;50.832;12.882;2022-11-14T01:27:03;25.55;;;10.82;;
70715;SDS011;59053;50.832;12.882;2022-11-14T01:29:47;29.90;;;11.83;;
70715;SDS011;59053;50.832;12.882;2022-11-14T01:32:31;27.58;;;11.10;;
70715;SDS011;59053;50.832;12.882;2022-11-14T01:35:15;29.02;;;11.32;;
70715;SDS011;59053;50.832;12.882;2022-11-14T01:37:59;27.15;;;11.13;;
70715;SDS011;59053;50.832;12.882;2022-11-14T01:40:44;27.90;;;10.98;;
70715;SDS011;59053;50.832;12.882;2022-11-14T01:43:29;27.97;;;10.67;;
70715;SDS011;59053;50.832;12.882;2022-11-14T01:46:24;27.45;;;11.60;;
70715;SDS011;59053;50.832;12.882;2022-11-14T01:49:14;26.85;;;10.18;;
70715;SDS011;59053;50.832;12.882;2022-11-14T01:52:01;26.65;;;10.77;;
70715;SDS011;59053;50.832;12.882;2022-11-14T01:54:47;27.40;;;10.90;;
70715;SDS011;59053;50.832;12.882;2022-11-14T01:57:32;26.07;;;10.80;;
70715;SDS011;59053;50.832;12.882;2022-11-14T02:00:18;26.23;;;10.80;;
70715;SDS011;59053;50.832;12.882;2022-11-14T02:03:02;25.00;;;10.02;;
70715;SDS011;59053;50.832;12.882;2022-11-14T02:05:46;27.05;;;10.40;;
70715;SDS011;59053;50.832;12.882;2022-11-14T02:08:31;24.67;;;10.05;;
70715;SDS011;59053;50.832;12.882;2022-11-14T02:11:15;24.07;;;10.17;;
70715;SDS011;59053;50.832;12.882;2022-11-14T02:13:59;26.08;;;10.40;;
70715;SDS011;59053;50.832;12.882;2022-11-14T02:16:44;23.83;;;10.13;;
70715;SDS011;59053;50.832;12.882;2022-11-14T02:19:44;25.73;;;9.93;;
70715;SDS011;59053;50.832;12.882;2022-11-14T02:22:28;26.92;;;10.82;;
70715;SDS011;59053;50.832;12.882;2022-11-14T02:25:13;27.37;;;11.13;;
70715;SDS011;59053;50.832;12.882;2022-11-14T02:28:00;24.05;;;10.32;;
70715;SDS011;59053;50.832;12.882;2022-11-14T02:30:45;22.73;;;9.32;;
70715;SDS011;59053;50.832;12.882;2022-11-14T02:33:29;20.80;;;9.25;;
70715;SDS011;59053;50.832;12.882;2022-11-14T02:36:13;24.58;;;10.50;;
70715;SDS011;59053;50.832;12.882;2022-11-14T02:38:57;22.93;;;9.77;;
70715;SDS011;59053;50.832;12.882;2022-11-14T02:41:41;22.17;;;9.35;;
70715;SDS011;59053;50.832;12.882;2022-11-14T02:44:24;24.08;;;9.43;;
70715;SDS011;59053;50.832;12.882;2022-11-14T02:47:08;25.33;;;9.95;;
70715;SDS011;59053;50.832;12.882;2022-11-14T02:49:52;20.38;;;9.13;;
70715;SDS011;59053;50.832;12.882;2022-11-14T02:52:36;20.83;;;9.00;;
70715;SDS011;59053;50.832;12.882;2022-11-14T02:55:20;23.73;;;9.00;;
70715;SDS011;59053;50.832;12.882;2022-11-14T02:58:04;20.17;;;9.25;;
70715;SDS011;59053;50.832;12.882;2022-11-14T03:00:48;21.40;;;9.10;;
70715;SDS011;59053;50.832;12.882;2022-11-14T03:03:32;21.77;;;9.75;;
70715;SDS011;59053;50.832;12.882;2022-11-14T03:06:16;24.30;;;9.23;;
70715;SDS011;59053;50.832;12.882;2022-11-14T03:09:00;21.58;;;9.77;;
70715;SDS011;59053;50.832;12.882;2022-11-14T03:11:44;23.42;;;10.18;;
70715;SDS011;59053;50.832;12.882;2022-11-14T03:14:31;21.30;;;9.52;;
70715;SDS011;59053;50.832;12.882;2022-11-14T03:17:15;24.08;;;9.95;;
70715;SDS011;59053;50.832;12.882;2022-11-14T03:19:59;20.47;;;9.20;;
70715;SDS011;59053;50.832;12.882;2022-11-14T03:22:43;24.55;;;9.88;;
70715;SDS011;59053;50.832;12.882;2022-11-14T03:25:27;23.30;;;9.32;;
70715;SDS011;59053;50.832;12.882;2022-11-14T03:28:11;21.65;;;9.73;;
70715;SDS011;59053;50.832;12.882;2022-11-14T03:30:55;21.88;;;9.50;;
70715;SDS011;59053;50.832;12.882;2022-11-14T03:33:39;25.30;;;10.43;;
70715;SDS011;59053;50.832;12.882;2022-11-14T03:36:22;26.83;;;11.30;;
70715;SDS011;59053;50.832;12.882;2022-11-14T03:39:06;25.63;;;10.75;;
70715;SDS011;59053;50.832;12.882;2022-11-14T03:41:50;24.40;;;10.52;;
70715;SDS011;59053;50.832;12.882;2022-11-14T03:44:34;25.13;;;10.65;;
70715;SDS011;59053;50.832;12.882;2022-11-14T03:47:18;26.27;;;10.67;;
70715;SDS011;59053;50.832;12.882;2022-11-14T03:50:02;26.95;;;11.40;;
70715;SDS011;59053;50.832;12.882;2022-11-14T03:52:49;25.50;;;10.95;;
70715;SDS011;59053;50.832;12.882;2022-11-14T03:55:33;24.38;;;10.13;;
70715;SDS011;59053;50.832;12.882;2022-11-14T03:58:17;26.35;;;10.93;;
70715;SDS011;59053;50.832;12.882;2022-11-14T04:01:03;25.33;;;10.63;;
70715;SDS011;59053;50.832;12.882;2022-11-14T04:03:48;24.95;;;10.65;;
70715;SDS011;59053;50.832;12.882;2022-11-14T04:06:40;25.83;;;11.50;;
70715;SDS011;59053;50.832;12.882;2022-11-14T04:09:24;26.17;;;11.20;;
70715;SDS011;59053;50.832;12.882;2022-11-14T04:12:17;24.63;;;11.10;;
70715;SDS011;59053;50.832;12.882;2022-11-14T04:15:01;23.50;;;10.70;;
70715;SDS011;59053;50.832;12.882;2022-11-14T04:17:45;23.70;;;10.60;;
70715;SDS011;59053;50.832;12.882;2022-11-14T04:23:56;25.00;;;10.32;;
70715;SDS011;59053;50.832;12.882;2022-11-14T04:26:40;24.38;;;10.25;;
70715;SDS011;59053;50.832;12.882;2022-11-14T04:29:24;24.00;;;11.07;;
70715;SDS011;59053;50.832;12.882;2022-11-14T04:32:08;24.75;;;11.25;;
70715;SDS011;59053;50.832;12.882;2022-11-14T04:34:52;25.60;;;11.10;;
70715;SDS011;59053;50.832;12.882;2022-11-14T04:37:36;25.02;;;11.30;;
70715;SDS011;59053;50.832;12.882;2022-11-14T04:43:28;27.00;;;11.53;;
70715;SDS011;59053;50.832;12.882;2022-11-14T04:46:12;28.35;;;12.45;;
70715;SDS011;59053;50.832;12.882;2022-11-14T04:48:56;28.23;;;11.73;;
70715;SDS011;59053;50.832;12.882;2022-11-14T04:51:40;28.60;;;11.65;;
70715;SDS011;59053;50.832;12.882;2022-11-14T04:54:24;28.33;;;12.35;;
70715;SDS011;59053;50.832;12.882;2022-11-14T04:57:08;31.00;;;13.10;;
70715;SDS011;59053;50.832;12.882;2022-11-14T04:59:52;30.75;;;12.85;;
70715;SDS011;59053;50.832;12.882;2022-11-14T05:02:36;30.63;;;13.23;;
70715;SDS011;59053;50.832;12.882;2022-11-14T05:05:28;28.55;;;12.77;;
70715;SDS011;59053;50.832;12.882;2022-11-14T05:08:14;29.15;;;12.43;;
70715;SDS011;59053;50.832;12.882;2022-11-14T05:10:58;30.40;;;13.33;;
70715;SDS011;59053;50.832;12.882;2022-11-14T05:13:42;29.15;;;12.20;;
70715;SDS011;59053;50.832;12.882;2022-11-14T05:16:26;30.70;;;12.48;;
70715;SDS011;59053;50.832;12.882;2022-11-14T05:21:58;29.65;;;12.02;;
70715;SDS011;59053;50.832;12.882;2022-11-14T05:24:42;31.70;;;12.00;;
70715;SDS011;59053;50.832;12.882;2022-11-14T05:27:27;31.20;;;13.80;;
70715;SDS011;59053;50.832;12.882;2022-11-14T05:30:11;31.27;;;12.57;;
70715;SDS011;59053;50.832;12.882;2022-11-14T05:32:55;28.30;;;12.00;;
70715;SDS011;59053;50.832;12.882;2022-11-14T05:35:39;31.60;;;12.45;;
70715;SDS011;59053;50.832;12.882;2022-11-14T05:38:23;36.40;;;13.20;;
70715;SDS011;59053;50.832;12.882;2022-11-14T05:41:08;29.15;;;12.93;;
70715;SDS011;59053;50.832;12.882;2022-11-14T05:43:53;29.30;;;13.07;;
70715;SDS011;59053;50.832;12.882;2022-11-14T05:46:36;30.92;;;12.68;;
70715;SDS011;59053;50.832;12.882;2022-11-14T05:55:37;30.45;;;12.23;;
70715;SDS011;59053;50.832;12.882;2022-11-14T05:58:21;29.70;;;12.63;;
70715;SDS011;59053;50.832;12.882;2022-11-14T06:01:06;30.80;;;13.50;;
70715;SDS011;59053;50.832;12.882;2022-11-14T06:03:58;28.60;;;12.23;;
70715;SDS011;59053;50.832;12.882;2022-11-14T06:07:01;30.20;;;12.70;;
70715;SDS011;59053;50.832;12.882;2022-11-14T06:09:45;29.48;;;12.45;;
70715;SDS011;59053;50.832;12.882;2022-11-14T06:12:31;30.15;;;12.55;;
70715;SDS011;59053;50.832;12.882;2022-11-14T06:15:16;29.35;;;12.70;;
70715;SDS011;59053;50.832;12.882;2022-11-14T06:18:00;30.27;;;13.43;;
70715;SDS011;59053;50.832;12.882;2022-11-14T06:20:44;31.53;;;13.67;;
70715;SDS011;59053;50.832;12.882;2022-11-14T06:23:28;26.67;;;11.75;;
70715;SDS011;59053;50.832;12.882;2022-11-14T06:26:20;29.27;;;12.90;;
70715;SDS011;59053;50.832;12.882;2022-11-14T06:29:03;28.80;;;12.10;;
70715;SDS011;59053;50.832;12.882;2022-11-14T06:31:47;31.27;;;13.23;;
70715;SDS011;59053;50.832;12.882;2022-11-14T06:34:31;28.80;;;11.73;;
70715;SDS011;59053;50.832;12.882;2022-11-14T06:37:15;30.77;;;13.00;;
70715;SDS011;59053;50.832;12.882;2022-11-14T06:39:59;28.60;;;12.38;;
70715;SDS011;59053;50.832;12.882;2022-11-14T06:42:43;29.05;;;12.65;;
70715;SDS011;59053;50.832;12.882;2022-11-14T06:45:27;28.77;;;12.93;;
70715;SDS011;59053;50.832;12.882;2022-11-14T06:48:11;29.93;;;12.53;;
70715;SDS011;59053;50.832;12.882;2022-11-14T06:50:56;29.52;;;12.23;;
70715;SDS011;59053;50.832;12.882;2022-11-14T06:53:40;29.58;;;12.57;;
70715;SDS011;59053;50.832;12.882;2022-11-14T06:56:24;28.88;;;12.38;;
70715;SDS011;59053;50.832;12.882;2022-11-14T06:59:08;31.58;;;12.82;;
70715;SDS011;59053;50.832;12.882;2022-11-14T07:01:52;27.83;;;12.17;;
70715;SDS011;59053;50.832;12.882;2022-11-14T07:04:36;29.23;;;12.35;;
70715;SDS011;59053;50.832;12.882;2022-11-14T07:07:20;27.23;;;11.85;;
70715;SDS011;59053;50.832;12.882;2022-11-14T07:10:04;30.60;;;12.65;;
70715;SDS011;59053;50.832;12.882;2022-11-14T07:12:48;28.98;;;12.68;;
70715;SDS011;59053;50.832;12.882;2022-11-14T07:15:32;28.90;;;12.50;;
70715;SDS011;59053;50.832;12.882;2022-11-14T07:18:16;27.63;;;12.02;;
70715;SDS011;59053;50.832;12.882;2022-11-14T07:21:01;30.60;;;12.52;;
70715;SDS011;59053;50.832;12.882;2022-11-14T07:23:45;27.38;;;12.85;;
70715;SDS011;59053;50.832;12.882;2022-11-14T07:26:29;28.13;;;12.07;;
70715;SDS011;59053;50.832;12.882;2022-11-14T07:29:13;26.80;;;11.50;;
70715;SDS011;59053;50.832;12.882;2022-11-14T07:31:57;28.92;;;11.82;;
70715;SDS011;59053;50.832;12.882;2022-11-14T07:34:41;30.15;;;12.02;;
70715;SDS011;59053;50.832;12.882;2022-11-14T07:37:25;27.05;;;11.57;;
70715;SDS011;59053;50.832;12.882;2022-11-14T07:40:09;28.27;;;11.40;;
70715;SDS011;59053;50.832;12.882;2022-11-14T07:43:00;25.40;;;11.10;;
70715;SDS011;59053;50.832;12.882;2022-11-14T07:45:44;27.00;;;11.73;;
70715;SDS011;59053;50.832;12.882;2022-11-14T07:48:28;27.65;;;11.00;;
70715;SDS011;59053;50.832;12.882;2022-11-14T07:51:16;26.50;;;11.43;;
70715;SDS011;59053;50.832;12.882;2022-11-14T07:54:00;24.42;;;10.35;;
70715;SDS011;59053;50.832;12.882;2022-11-14T07:56:45;25.07;;;11.70;;
70715;SDS011;59053;50.832;12.882;2022-11-14T07:59:28;26.05;;;10.88;;
70715;SDS011;59053;50.832;12.882;2022-11-14T08:02:13;26.60;;;11.55;;
70715;SDS011;59053;50.832;12.882;2022-11-14T08:04:57;27.55;;;12.27;;
70715;SDS011;59053;50.832;12.882;2022-11-14T08:07:41;26.58;;;11.18;;
70715;SDS011;59053;50.832;12.882;2022-11-14T08:10:25;26.57;;;10.90;;
70715;SDS011;59053;50.832;12.882;2022-11-14T08:13:09;27.50;;;11.05;;
70715;SDS011;59053;50.832;12.882;2022-11-14T08:15:53;25.58;;;11.18;;
70715;SDS011;59053;50.832;12.882;2022-11-14T08:18:37;24.30;;;10.30;;
70715;SDS011;59053;50.832;12.882;2022-11-14T08:21:21;25.27;;;10.75;;
70715;SDS011;59053;50.832;12.882;2022-11-14T08:24:05;25.20;;;11.10;;
70715;SDS011;59053;50.832;12.882;2022-11-14T08:26:48;25.95;;;11.77;;
70715;SDS011;59053;50.832;12.882;2022-11-14T08:29:33;28.77;;;11.60;;
70715;SDS011;59053;50.832;12.882;2022-11-14T08:32:17;28.02;;;11.65;;
70715;SDS011;59053;50.832;12.882;2022-11-14T08:35:01;26.40;;;11.32;;
70715;SDS011;59053;50.832;12.882;2022-11-14T08:37:45;28.93;;;11.60;;
70715;SDS011;59053;50.832;12.882;2022-11-14T08:40:29;29.10;;;11.23;;
70715;SDS011;59053;50.832;12.882;2022-11-14T08:43:12;28.48;;;11.48;;
70715;SDS011;59053;50.832;12.882;2022-11-14T08:45:57;27.05;;;11.15;;
70715;SDS011;59053;50.832;12.882;2022-11-14T08:48:41;27.23;;;11.00;;
70715;SDS011;59053;50.832;12.882;2022-11-14T08:51:25;27.47;;;11.57;;
70715;SDS011;59053;50.832;12.882;2022-11-14T08:54:09;27.10;;;11.63;;
70715;SDS011;59053;50.832;12.882;2022-11-14T08:56:53;31.40;;;11.75;;
70715;SDS011;59053;50.832;12.882;2022-11-14T08:59:37;28.02;;;11.75;;
70715;SDS011;59053;50.832;12.882;2022-11-14T09:02:21;28.65;;;11.00;;
70715;SDS011;59053;50.832;12.882;2022-11-14T09:05:05;27.13;;;11.50;;
70715;SDS011;59053;50.832;12.882;2022-11-14T09:07:49;27.20;;;11.30;;
70715;SDS011;59053;50.832;12.882;2022-11-14T09:10:36;26.33;;;11.43;;
70715;SDS011;59053;50.832;12.882;2022-11-14T09:13:20;27.30;;;11.95;;
70715;SDS011;59053;50.832;12.882;2022-11-14T09:16:04;24.63;;;10.82;;
70715;SDS011;59053;50.832;12.882;2022-11-14T09:18:48;26.20;;;10.97;;
70715;SDS011;59053;50.832;12.882;2022-11-14T09:21:32;26.67;;;11.45;;
70715;SDS011;59053;50.832;12.882;2022-11-14T09:24:16;24.83;;;10.65;;
70715;SDS011;59053;50.832;12.882;2022-11-14T09:27:00;24.45;;;10.35;;
70715;SDS011;59053;50.832;12.882;2022-11-14T09:29:44;22.05;;;9.55;;
70715;SDS011;59053;50.832;12.882;2022-11-14T09:32:28;24.87;;;10.57;;
70715;SDS011;59053;50.832;12.882;2022-11-14T09:35:12;23.27;;;10.75;;
70715;SDS011;59053;50.832;12.882;2022-11-14T09:38:06;22.42;;;10.43;;
70715;SDS011;59053;50.832;12.882;2022-11-14T09:47:12;24.27;;;9.70;;
70715;SDS011;59053;50.832;12.882;2022-11-14T09:50:03;21.70;;;10.05;;
70715;SDS011;59053;50.832;12.882;2022-11-14T09:52:48;20.55;;;9.15;;
70715;SDS011;59053;50.832;12.882;2022-11-14T09:55:34;22.20;;;9.50;;
70715;SDS011;59053;50.832;12.882;2022-11-14T09:58:19;24.20;;;9.63;;
70715;SDS011;59053;50.832;12.882;2022-11-14T10:01:09;22.67;;;9.97;;
70715;SDS011;59053;50.832;12.882;2022-11-14T10:04:17;20.67;;;9.23;;
70715;SDS011;59053;50.832;12.882;2022-11-14T10:07:20;22.17;;;9.70;;
70715;SDS011;59053;50.832;12.882;2022-11-14T10:10:24;22.92;;;9.50;;
70715;SDS011;59053;50.832;12.882;2022-11-14T10:16:13;19.83;;;9.10;;
70715;SDS011;59053;50.832;12.882;2022-11-14T10:30:37;16.70;;;7.90;;
70715;SDS011;59053;50.832;12.882;2022-11-14T10:36:15;17.67;;;8.35;;
70715;SDS011;59053;50.832;12.882;2022-11-14T10:41:51;17.05;;;7.95;;
70715;SDS011;59053;50.832;12.882;2022-11-14T10:44:38;19.33;;;8.07;;
70715;SDS011;59053;50.832;12.882;2022-11-14T10:47:24;17.83;;;7.93;;
70715;SDS011;59053;50.832;12.882;2022-11-14T10:50:18;18.00;;;7.88;;
70715;SDS011;59053;50.832;12.882;2022-11-14T10:53:03;17.40;;;7.82;;
70715;SDS011;59053;50.832;12.882;2022-11-14T10:55:50;17.75;;;7.88;;
70715;SDS011;59053;50.832;12.882;2022-11-14T10:58:36;15.57;;;7.50;;
70715;SDS011;59053;50.832;12.882;2022-11-14T11:04:31;17.42;;;7.65;;
70715;SDS011;59053;50.832;12.882;2022-11-14T11:07:33;17.20;;;7.95;;
70715;SDS011;59053;50.832;12.882;2022-11-14T11:10:41;16.45;;;7.13;;
70715;SDS011;59053;50.832;12.882;2022-11-14T11:13:54;15.33;;;7.43;;
70715;SDS011;59053;50.832;12.882;2022-11-14T11:16:39;16.05;;;7.25;;
70715;SDS011;59053;50.832;12.882;2022-11-14T11:19:24;16.98;;;7.25;;
70715;SDS011;59053;50.832;12.882;2022-11-14T11:25:29;14.57;;;6.63;;
70715;SDS011;59053;50.832;12.882;2022-11-14T11:33:44;17.30;;;7.57;;
70715;SDS011;59053;50.832;12.882;2022-11-14T11:36:28;15.40;;;7.20;;
70715;SDS011;59053;50.832;12.882;2022-11-14T11:39:18;15.77;;;7.28;;
70715;SDS011;59053;50.832;12.882;2022-11-14T11:42:04;17.17;;;7.03;;
70715;SDS011;59053;50.832;12.882;2022-11-14T11:44:52;15.30;;;6.88;;
70715;SDS011;59053;50.832;12.882;2022-11-14T11:47:41;16.58;;;6.95;;
70715;SDS011;59053;50.832;12.882;2022-11-14T11:50:25;15.65;;;6.82;;
70715;SDS011;59053;50.832;12.882;2022-11-14T11:53:27;15.90;;;7.05;;
70715;SDS011;59053;50.832;12.882;2022-11-14T11:56:13;15.10;;;7.23;;
70715;SDS011;59053;50.832;12.882;2022-11-14T11:59:42;16.45;;;7.50;;
70715;SDS011;59053;50.832;12.882;2022-11-14T12:04:59;24.10;;;7.97;;
70715;SDS011;59053;50.832;12.882;2022-11-14T12:07:45;18.95;;;7.30;;
70715;SDS011;59053;50.832;12.882;2022-11-14T12:10:35;16.83;;;7.67;;
70715;SDS011;59053;50.832;12.882;2022-11-14T12:16:26;15.27;;;7.30;;
70715;SDS011;59053;50.832;12.882;2022-11-14T12:19:21;17.58;;;7.18;;
70715;SDS011;59053;50.832;12.882;2022-11-14T12:22:16;15.20;;;6.93;;
70715;SDS011;59053;50.832;12.882;2022-11-14T12:25:47;15.17;;;6.73;;
70715;SDS011;59053;50.832;12.882;2022-11-14T12:28:15;15.25;;;6.90;;
70715;SDS011;59053;50.832;12.882;2022-11-14T12:31:02;13.35;;;6.70;;
70715;SDS011;59053;50.832;12.882;2022-11-14T12:33:49;15.23;;;7.25;;
70715;SDS011;59053;50.832;12.882;2022-11-14T12:36:36;14.70;;;6.75;;
70715;SDS011;59053;50.832;12.882;2022-11-14T12:39:25;15.77;;;6.90;;
70715;SDS011;59053;50.832;12.882;2022-11-14T12:42:10;13.85;;;6.57;;
70715;SDS011;59053;50.832;12.882;2022-11-14T12:44:57;14.18;;;6.38;;
70715;SDS011;59053;50.832;12.882;2022-11-14T12:48:12;12.25;;;5.90;;
70715;SDS011;59053;50.832;12.882;2022-11-14T12:50:44;15.25;;;5.97;;
70715;SDS011;59053;50.832;12.882;2022-11-14T13:10:53;13.95;;;6.70;;
70715;SDS011;59053;50.832;12.882;2022-11-14T13:17:26;13.90;;;6.63;;
70715;SDS011;59053;50.832;12.882;2022-11-14T13:20:30;14.65;;;6.57;;
70715;SDS011;59053;50.832;12.882;2022-11-14T13:50:24;17.95;;;7.15;;
70715;SDS011;59053;50.832;12.882;2022-11-14T13:53:12;14.83;;;6.57;;
70715;SDS011;59053;50.832;12.882;2022-11-14T13:56:04;14.40;;;6.63;;
70715;SDS011;59053;50.832;12.882;2022-11-14T13:59:12;14.80;;;6.85;;
70715;SDS011;59053;50.832;12.882;2022-11-14T14:02:10;14.73;;;6.57;;
70715;SDS011;59053;50.832;12.882;2022-11-14T14:22:24;18.37;;;8.13;;
70715;SDS011;59053;50.832;12.882;2022-11-14T14:25:15;17.00;;;7.60;;
70715;SDS011;59053;50.832;12.882;2022-11-14T14:28:14;17.08;;;7.85;;
70715;SDS011;59053;50.832;12.882;2022-11-14T14:31:02;18.95;;;7.88;;
70715;SDS011;59053;50.832;12.882;2022-11-14T14:33:47;17.85;;;8.15;;
70715;SDS011;59053;50.832;12.882;2022-11-14T14:36:32;18.27;;;7.80;;
70715;SDS011;59053;50.832;12.882;2022-11-14T14:39:18;17.73;;;8.13;;
70715;SDS011;59053;50.832;12.882;2022-11-14T14:42:08;17.92;;;7.82;;
70715;SDS011;59053;50.832;12.882;2022-11-14T14:44:52;17.52;;;8.25;;
70715;SDS011;59053;50.832;12.882;2022-11-14T14:47:41;18.05;;;8.52;;
70715;SDS011;59053;50.832;12.882;2022-11-14T14:50:27;18.37;;;8.80;;
70715;SDS011;59053;50.832;12.882;2022-11-14T14:56:19;21.83;;;8.55;;
70715;SDS011;59053;50.832;12.882;2022-11-14T14:59:16;20.98;;;8.48;;
70715;SDS011;59053;50.832;12.882;2022-11-14T15:02:00;19.42;;;8.32;;
70715;SDS011;59053;50.832;12.882;2022-11-14T15:05:00;19.53;;;8.67;;
70715;SDS011;59053;50.832;12.882;2022-11-14T15:07:59;21.30;;;8.73;;
70715;SDS011;59053;50.832;12.882;2022-11-14T15:10:43;22.17;;;9.32;;
70715;SDS011;59053;50.832;12.882;2022-11-14T15:19:43;22.07;;;9.50;;
70715;SDS011;59053;50.832;12.882;2022-11-14T15:22:28;20.70;;;8.77;;
70715;SDS011;59053;50.832;12.882;2022-11-14T15:28:47;24.15;;;9.38;;
70715;SDS011;59053;50.832;12.882;2022-11-14T15:31:31;21.92;;;8.82;;
70715;SDS011;59053;50.832;12.882;2022-11-14T15:42:58;19.52;;;8.88;;
70715;SDS011;59053;50.832;12.882;2022-11-14T15:45:42;21.30;;;9.30;;
70715;SDS011;59053;50.832;12.882;2022-11-14T15:58:09;21.95;;;9.00;;
70715;SDS011;59053;50.832;12.882;2022-11-14T16:00:55;23.23;;;9.52;;
70715;SDS011;59053;50.832;12.882;2022-11-14T16:03:42;22.87;;;9.70;;
70715;SDS011;59053;50.832;12.882;2022-11-14T16:13:31;23.67;;;10.70;;
70715;SDS011;59053;50.832;12.882;2022-11-14T16:16:15;26.55;;;11.45;;
70715;SDS011;59053;50.832;12.882;2022-11-14T16:18:59;29.90;;;11.37;;
70715;SDS011;59053;50.832;12.882;2022-11-14T16:21:59;28.80;;;11.85;;
70715;SDS011;59053;50.832;12.882;2022-11-14T16:24:53;31.15;;;11.63;;
70715;SDS011;59053;50.832;12.882;2022-11-14T16:27:47;27.05;;;10.80;;
70715;SDS011;59053;50.832;12.882;2022-11-14T16:33:59;27.50;;;11.33;;
70715;SDS011;59053;50.832;12.882;2022-11-14T16:36:43;27.48;;;11.77;;
70715;SDS011;59053;50.832;12.882;2022-11-14T16:39:28;28.38;;;11.65;;
70715;SDS011;59053;50.832;12.882;2022-11-14T16:42:13;29.67;;;11.95;;
70715;SDS011;59053;50.832;12.882;2022-11-14T16:45:00;31.17;;;12.57;;
70715;SDS011;59053;50.832;12.882;2022-11-14T16:47:59;29.20;;;12.07;;
70715;SDS011;59053;50.832;12.882;2022-11-14T16:51:01;30.95;;;12.30;;
70715;SDS011;59053;50.832;12.882;2022-11-14T16:53:55;30.75;;;12.18;;
70715;SDS011;59053;50.832;12.882;2022-11-14T16:56:39;33.47;;;12.75;;
70715;SDS011;59053;50.832;12.882;2022-11-14T16:59:23;30.88;;;12.70;;
70715;SDS011;59053;50.832;12.882;2022-11-14T17:02:11;31.73;;;12.90;;
70715;SDS011;59053;50.832;12.882;2022-11-14T17:04:56;30.48;;;12.82;;
70715;SDS011;59053;50.832;12.882;2022-11-14T17:07:41;32.85;;;12.50;;
70715;SDS011;59053;50.832;12.882;2022-11-14T17:10:25;32.83;;;13.10;;
70715;SDS011;59053;50.832;12.882;2022-11-14T17:13:09;31.33;;;13.20;;
70715;SDS011;59053;50.832;12.882;2022-11-14T17:18:52;34.13;;;12.40;;
70715;SDS011;59053;50.832;12.882;2022-11-14T17:21:36;35.03;;;13.23;;
70715;SDS011;59053;50.832;12.882;2022-11-14T17:24:20;35.80;;;14.40;;
70715;SDS011;59053;50.832;12.882;2022-11-14T17:27:04;32.72;;;13.55;;
70715;SDS011;59053;50.832;12.882;2022-11-14T17:29:48;35.60;;;14.37;;
70715;SDS011;59053;50.832;12.882;2022-11-14T17:32:34;34.95;;;13.25;;
70715;SDS011;59053;50.832;12.882;2022-11-14T17:35:18;30.00;;;11.95;;
70715;SDS011;59053;50.832;12.882;2022-11-14T17:41:05;34.75;;;12.88;;
70715;SDS011;59053;50.832;12.882;2022-11-14T17:43:53;33.57;;;12.70;;
70715;SDS011;59053;50.832;12.882;2022-11-14T17:46:39;32.60;;;12.73;;
70715;SDS011;59053;50.832;12.882;2022-11-14T17:49:23;31.38;;;12.95;;
70715;SDS011;59053;50.832;12.882;2022-11-14T17:52:24;34.50;;;14.05;;
70715;SDS011;59053;50.832;12.882;2022-11-14T17:55:07;33.65;;;12.88;;
70715;SDS011;59053;50.832;12.882;2022-11-14T17:57:51;30.13;;;12.43;;
70715;SDS011;59053;50.832;12.882;2022-11-14T18:00:35;34.85;;;13.35;;
70715;SDS011;59053;50.832;12.882;2022-11-14T18:03:20;30.98;;;13.32;;
70715;SDS011;59053;50.832;12.882;2022-11-14T18:06:16;33.65;;;13.30;;
70715;SDS011;59053;50.832;12.882;2022-11-14T18:09:01;32.27;;;12.77;;
70715;SDS011;59053;50.832;12.882;2022-11-14T18:11:49;32.92;;;12.90;;
70715;SDS011;59053;50.832;12.882;2022-11-14T18:14:33;34.38;;;13.38;;
70715;SDS011;59053;50.832;12.882;2022-11-14T18:17:18;55.10;;;20.90;;
70715;SDS011;59053;50.832;12.882;2022-11-14T18:20:02;40.75;;;17.65;;
70715;SDS011;59053;50.832;12.882;2022-11-14T18:22:46;36.60;;;15.60;;
70715;SDS011;59053;50.832;12.882;2022-11-14T18:25:30;34.00;;;14.07;;
70715;SDS011;59053;50.832;12.882;2022-11-14T18:28:14;38.55;;;16.20;;
70715;SDS011;59053;50.832;12.882;2022-11-14T18:30:58;33.65;;;13.60;;
70715;SDS011;59053;50.832;12.882;2022-11-14T18:33:42;36.15;;;13.95;;
70715;SDS011;59053;50.832;12.882;2022-11-14T18:36:26;34.13;;;13.70;;
70715;SDS011;59053;50.832;12.882;2022-11-14T18:39:10;36.00;;;14.18;;
70715;SDS011;59053;50.832;12.882;2022-11-14T18:41:55;34.92;;;14.20;;
70715;SDS011;59053;50.832;12.882;2022-11-14T18:44:39;34.38;;;13.15;;
70715;SDS011;59053;50.832;12.882;2022-11-14T18:47:23;37.20;;;13.05;;
70715;SDS011;59053;50.832;12.882;2022-11-14T18:50:07;32.90;;;13.37;;
70715;SDS011;59053;50.832;12.882;2022-11-14T18:52:51;33.80;;;13.25;;
70715;SDS011;59053;50.832;12.882;2022-11-14T18:55:46;38.33;;;15.57;;
70715;SDS011;59053;50.832;12.882;2022-11-14T18:58:35;38.17;;;14.98;;
70715;SDS011;59053;50.832;12.882;2022-11-14T19:01:25;38.33;;;14.27;;